Time;durP1;ratioP1;P1;durP2;ratioP2;P2;SDS_P1;SDS_P2;PMS_P1;PMS_P2;Temp;Humidity;BMP_temperature;BMP_pressure;BME280_temperature;BME280_humidity;BME280_pressure;Samples;Min_cycle;Max_cycle;Signal;HPM_P1;HPM_P2
2024/03/29 00:07:15;;;;;;;3.50;1.60;;;;;;;9.32;66.06;97831.40;447146;1239;138718;-62
2024/03/29 00:17:18;;;;;;;1.90;1.20;;;;;;;9.26;66.16;97846.90;444229;1239;5114554;-59
2024/03/29 00:27:25;;;;;;;2.00;1.20;;;;;;;9.17;66.17;97857.60;447819;1235;139830;-59
2024/03/29 00:37:28;;;;;;;2.00;0.90;;;;;;;9.09;66.09;97871.40;448459;1239;139896;-60
2024/03/29 00:47:32;;;;;;;1.80;1.30;;;;;;;9.02;65.92;97885.89;447757;1239;138707;-59
2024/03/29 00:57:35;;;;;;;1.30;1.20;;;;;;;8.96;65.80;97912.81;447902;1237;139267;-59
2024/03/29 01:07:41;;;;;;;2.60;1.20;;;;;;;8.89;65.61;97936.23;447299;1239;138871;-59
2024/03/29 01:17:45;;;;;;;4.50;1.30;;;;;;;8.80;65.00;97958.45;448366;1239;139288;-62
2024/03/29 01:27:52;;;;;;;1.60;1.50;;;;;;;8.68;65.13;97988.55;448584;1239;139411;-59
2024/03/29 01:37:56;;;;;;;3.10;1.20;;;;;;;8.52;65.22;98019.31;447704;1235;138657;-58
2024/03/29 01:47:59;;;;;;;1.30;0.60;;;;;;;8.34;65.48;98046.13;447360;1239;139282;-59
2024/03/29 01:58:03;;;;;;;1.20;0.70;;;;;;;8.13;65.81;98074.42;447446;1239;139090;-60
2024/03/29 02:08:08;;;;;;;1.30;0.70;;;;;;;7.94;66.31;98107.11;448178;1236;139596;-59
2024/03/29 02:18:11;;;;;;;2.60;1.10;;;;;;;7.74;66.53;98122.38;448121;1235;139335;-58
2024/03/29 02:28:14;;;;;;;1.60;0.80;;;;;;;7.46;66.86;98142.71;447493;1239;139069;-61
2024/03/29 02:38:18;;;;;;;2.10;0.80;;;;;;;7.18;67.51;98160.27;447861;1239;138126;-60
2024/03/29 02:48:23;;;;;;;0.80;0.80;;;;;;;6.89;68.02;98178.33;447700;1239;139051;-61
2024/03/29 02:58:28;;;;;;;1.20;0.90;;;;;;;6.61;68.49;98188.69;447720;1235;139561;-61
2024/03/29 03:18:53;;;;;;;2.40;2.10;;;;;;;6.08;69.85;98191.23;447686;1235;138813;-61
2024/03/29 03:28:57;;;;;;;2.20;1.60;;;;;;;5.76;70.58;98213.81;448328;1239;139112;-60
2024/03/29 03:39:00;;;;;;;2.20;1.90;;;;;;;5.40;71.51;98236.60;447561;1235;139026;-61
2024/03/29 03:49:04;;;;;;;2.20;1.70;;;;;;;5.12;72.84;98256.10;448213;1239;139618;-62
2024/03/29 03:59:07;;;;;;;3.80;1.70;;;;;;;4.95;73.85;98271.85;447746;1239;138692;-61
2024/03/29 04:09:11;;;;;;;2.30;1.80;;;;;;;4.79;75.20;98276.83;447790;1235;138717;-60
2024/03/29 04:19:16;;;;;;;3.40;2.60;;;;;;;4.68;76.34;98283.39;447760;1239;139440;-59
2024/03/29 04:29:19;;;;;;;2.50;1.90;;;;;;;4.61;77.78;98284.44;447463;1239;139146;-60
2024/03/29 04:39:23;;;;;;;3.60;3.20;;;;;;;4.57;78.48;98283.48;447649;1236;138759;-58
2024/03/29 04:49:33;;;;;;;3.80;3.50;;;;;;;4.57;79.23;98288.89;447811;1239;140033;-58
2024/03/29 04:59:36;;;;;;;3.50;3.20;;;;;;;4.63;79.83;98294.74;447986;1236;139518;-59
2024/03/29 05:09:41;;;;;;;5.30;3.30;;;;;;;4.77;80.56;98305.02;448097;1235;138907;-59
2024/03/29 05:19:44;;;;;;;5.40;3.60;;;;;;;5.00;80.85;98311.45;447718;1239;137589;-59
2024/03/29 05:29:48;;;;;;;3.50;2.90;;;;;;;5.72;81.27;98318.77;447757;1239;139138;-58
2024/03/29 05:39:58;;;;;;;4.00;3.00;;;;;;;9.24;84.54;98326.77;448043;1239;138494;-59
2024/03/29 05:50:05;;;;;;;3.70;2.40;;;;;;;16.06;74.16;98343.26;447861;1236;138630;-59
2024/03/29 06:00:12;;;;;;;3.30;3.00;;;;;;;20.48;63.58;98360.67;448091;1236;139773;-59
2024/03/29 06:10:17;;;;;;;2.40;2.20;;;;;;;23.43;55.28;98370.18;447544;1239;138921;-60
2024/03/29 06:20:21;;;;;;;2.70;2.20;;;;;;;25.82;48.79;98359.45;448575;1239;138134;-60
2024/03/29 06:30:26;;;;;;;2.40;2.20;;;;;;;27.69;44.43;98360.48;448876;1238;138281;-59
2024/03/29 06:40:30;;;;;;;3.00;1.90;;;;;;;29.73;41.25;98364.88;448512;1239;138943;-60
2024/03/29 06:50:33;;;;;;;3.40;1.90;;;;;;;32.71;38.26;98363.36;448204;1239;138440;-59
2024/03/29 07:00:37;;;;;;;2.20;2.00;;;;;;;34.01;34.61;98371.23;448309;1239;138574;-60
2024/03/29 07:10:40;;;;;;;1.60;1.50;;;;;;;34.01;30.90;98383.52;448089;1239;138861;-61
2024/03/29 07:20:44;;;;;;;1.60;1.30;;;;;;;34.29;31.01;98389.83;448889;1239;137262;-66
2024/03/29 07:30:50;;;;;;;1.30;1.20;;;;;;;37.12;29.54;98381.28;450024;1239;138176;-61
2024/03/29 07:40:55;;;;;;;3.50;1.30;;;;;;;39.02;28.22;98375.50;447867;1239;139161;-67
2024/03/29 07:50:58;;;;;;;1.80;1.40;;;;;;;41.00;26.65;98377.36;448365;1239;139014;-65
2024/03/29 08:01:01;;;;;;;2.00;1.30;;;;;;;42.93;25.21;98393.38;448334;1239;138564;-67
2024/03/29 08:11:05;;;;;;;2.40;1.50;;;;;;;42.53;22.72;98402.12;448490;1239;139922;-63
2024/03/29 08:21:11;;;;;;;3.70;1.20;;;;;;;39.33;21.61;98417.98;450473;1239;138934;-64
2024/03/29 08:31:15;;;;;;;3.10;1.10;;;;;;;37.35;22.19;98420.79;448505;1236;138402;-69
2024/03/29 08:41:19;;;;;;;1.30;1.00;;;;;;;37.35;22.90;98419.83;448625;1239;138698;-69
2024/03/29 08:51:22;;;;;;;1.10;0.70;;;;;;;36.13;21.69;98426.74;448700;1239;138723;-67
2024/03/29 09:01:25;;;;;;;2.60;0.90;;;;;;;29.15;23.52;98444.71;448223;1239;138882;-66
2024/03/29 09:11:29;;;;;;;0.60;0.40;;;;;;;25.35;26.01;98451.35;448864;1236;138574;-64
2024/03/29 09:21:32;;;;;;;0.50;0.50;;;;;;;22.68;28.10;98454.48;448234;1239;138796;-65
2024/03/29 09:31:36;;;;;;;0.80;0.30;;;;;;;21.57;29.93;98460.34;448452;1239;138896;-63
2024/03/29 09:41:44;;;;;;;1.70;0.70;;;;;;;20.42;30.54;98473.63;448487;1239;138689;-61
2024/03/29 09:51:49;;;;;;;3.50;1.70;;;;;;;18.87;32.03;98481.70;448206;1239;138728;-62
2024/03/29 10:01:55;;;;;;;2.90;0.70;;;;;;;17.84;33.49;98479.31;448214;1239;139187;-61
2024/03/29 10:11:59;;;;;;;0.50;0.50;;;;;;;17.01;34.99;98496.16;448654;1239;138584;-65
2024/03/29 10:22:07;;;;;;;3.20;1.20;;;;;;;16.56;35.86;98493.61;447927;1239;138981;-60
2024/03/29 10:32:13;;;;;;;2.80;0.60;;;;;;;15.92;36.97;98503.05;448298;1239;138683;-59
2024/03/29 10:42:17;;;;;;;2.60;0.90;;;;;;;15.68;37.46;98485.98;447750;1241;138856;-59
2024/03/29 10:52:21;;;;;;;1.40;0.80;;;;;;;15.36;37.61;98463.63;448736;1240;138481;-62
2024/03/29 11:02:31;;;;;;;3.20;1.10;;;;;;;15.10;37.86;98456.73;448127;1239;138819;-61
2024/03/29 11:12:45;;;;;;;1.10;0.50;;;;;;;15.12;38.10;98436.80;449012;1239;138639;-63
2024/03/29 11:22:51;;;;;;;1.10;0.40;;;;;;;15.23;37.94;98441.64;448430;1237;139365;-62
2024/03/29 11:32:57;;;;;;;0.80;0.60;;;;;;;15.21;38.15;98440.66;447945;1239;138258;-60
2024/03/29 11:43:01;;;;;;;1.40;0.50;;;;;;;15.23;37.97;98421.94;447973;1240;138840;-64
2024/03/29 11:53:06;;;;;;;2.70;0.90;;;;;;;15.34;38.16;98419.04;447986;1235;138678;-54
2024/03/29 12:03:10;;;;;;;2.60;0.80;;;;;;;15.47;37.13;98413.34;447589;1238;139222;-62
2024/03/29 12:13:17;;;;;;;2.60;0.80;;;;;;;15.51;36.52;98425.10;444568;1239;5119366;-60
2024/03/29 12:23:22;;;;;;;3.90;0.70;;;;;;;15.57;36.97;98451.98;447888;1235;138689;-59
2024/03/29 12:33:28;;;;;;;0.50;0.50;;;;;;;15.65;37.59;98454.16;448537;1235;138210;-58
2024/03/29 12:43:32;;;;;;;3.10;1.80;;;;;;;16.06;37.67;98450.83;447826;1240;139512;-62
2024/03/29 12:53:39;;;;;;;7.70;1.30;;;;;;;16.25;37.67;98448.38;447462;1240;138249;-63
2024/03/29 13:03:44;;;;;;;0.80;0.40;;;;;;;16.61;36.25;98456.40;448669;1235;138182;-61
2024/03/29 13:13:47;;;;;;;2.40;0.90;;;;;;;16.76;35.71;98463.25;448382;1239;138237;-60
2024/03/29 13:23:50;;;;;;;0.50;0.40;;;;;;;17.25;35.63;98460.70;448095;1239;138672;-61
2024/03/29 13:33:59;;;;;;;0.50;0.50;;;;;;;17.53;35.22;98452.43;447783;1239;139978;-58
2024/03/29 13:44:05;;;;;;;1.20;0.70;;;;;;;17.64;34.84;98450.16;448130;1239;138623;-67
2024/03/29 13:54:08;;;;;;;1.20;0.80;;;;;;;17.64;34.70;98444.00;448444;1240;139006;-67
2024/03/29 14:04:11;;;;;;;2.30;0.70;;;;;;;17.64;34.66;98446.23;447303;1240;139206;-67
2024/03/29 14:14:16;;;;;;;0.80;0.70;;;;;;;17.74;35.19;98441.13;447689;1239;138400;-60
2024/03/29 14:24:24;;;;;;;1.60;0.70;;;;;;;17.86;35.23;98430.63;448034;1239;138756;-60
2024/03/29 14:34:34;;;;;;;1.60;0.70;;;;;;;17.71;35.09;98423.72;448160;1239;138277;-61
2024/03/29 14:44:38;;;;;;;0.50;0.40;;;;;;;17.67;35.18;98413.06;448136;1239;139303;-58
2024/03/29 14:54:41;;;;;;;3.70;1.30;;;;;;;17.62;35.16;98405.29;447922;1240;138273;-66
2024/03/29 15:04:45;;;;;;;1.10;0.40;;;;;;;17.59;35.11;98401.73;448193;1239;138787;-65
2024/03/29 15:14:48;;;;;;;2.90;0.60;;;;;;;17.55;35.33;98405.76;447855;1235;138258;-63
2024/03/29 15:24:53;;;;;;;0.90;0.40;;;;;;;17.20;35.50;98390.23;447419;1235;138685;-62
2024/03/29 15:34:57;;;;;;;1.50;1.00;;;;;;;16.91;35.93;98399.05;448699;1239;138882;-60
2024/03/29 15:45:00;;;;;;;1.10;0.90;;;;;;;16.81;36.29;98390.81;448051;1235;138335;-60
2024/03/29 15:55:05;;;;;;;2.40;0.70;;;;;;;16.65;36.29;98373.04;461777;1235;138100;-60
2024/03/29 16:05:09;;;;;;;3.40;2.10;;;;;;;16.44;36.33;98366.31;461707;1235;139712;-69
2024/03/29 16:15:12;;;;;;;4.50;1.80;;;;;;;16.24;36.53;98363.14;461759;1235;143881;-68
2024/03/29 16:25:15;;;;;;;2.40;1.30;;;;;;;15.96;36.89;98360.46;461923;1235;138092;-63
2024/03/29 16:35:19;;;;;;;2.50;2.20;;;;;;;15.58;37.32;98347.50;461891;1235;138074;-71
2024/03/29 16:45:22;;;;;;;6.40;3.70;;;;;;;15.26;37.84;98348.60;461698;1236;138842;-63
2024/03/29 16:55:28;;;;;;;7.60;4.90;;;;;;;14.91;38.25;98354.84;461808;1235;138741;-57
2024/03/29 17:05:31;;;;;;;6.60;4.90;;;;;;;14.57;38.83;98359.98;461838;1235;139087;-60
2024/03/29 17:15:34;;;;;;;4.00;2.20;;;;;;;14.17;39.48;98368.63;461902;1235;138556;-65
2024/03/29 17:25:38;;;;;;;5.80;3.20;;;;;;;13.82;40.16;98374.66;461945;1235;138323;-60
2024/03/29 17:35:42;;;;;;;5.90;3.20;;;;;;;13.56;41.03;98376.45;461909;1235;139067;-62
2024/03/29 17:45:45;;;;;;;8.50;5.60;;;;;;;13.46;41.83;98373.17;461866;1235;138730;-61
2024/03/29 17:55:50;;;;;;;7.70;5.70;;;;;;;13.41;42.60;98372.17;462020;1235;138287;-61
2024/03/29 18:05:57;;;;;;;7.40;5.50;;;;;;;13.38;43.24;98388.70;461933;1235;138866;-76
2024/03/29 18:16:00;;;;;;;9.20;7.10;;;;;;;13.32;43.67;98397.01;461968;1235;138261;-60
2024/03/29 18:26:03;;;;;;;8.90;6.30;;;;;;;13.06;44.17;98393.55;462071;1235;138655;-66
2024/03/29 18:36:08;;;;;;;8.00;5.40;;;;;;;12.85;44.98;98407.05;461986;1235;138847;-66
2024/03/29 18:46:11;;;;;;;6.90;5.50;;;;;;;12.83;45.40;98407.46;461980;1235;138142;-61
2024/03/29 18:56:14;;;;;;;12.20;6.90;;;;;;;12.83;45.69;98404.78;462122;1235;138252;-61
2024/03/29 19:06:25;;;;;;;13.60;9.10;;;;;;;12.82;46.09;98392.79;462006;1235;138781;-58
2024/03/29 19:16:30;;;;;;;12.20;7.00;;;;;;;12.80;46.50;98377.20;461969;1235;139107;-59
2024/03/29 19:26:33;;;;;;;8.00;5.80;;;;;;;12.83;46.68;98376.37;462022;1235;138565;-59
2024/03/29 19:36:37;;;;;;;10.60;7.00;;;;;;;12.81;46.79;98375.84;461857;1235;138908;-60
2024/03/29 19:46:40;;;;;;;9.90;7.30;;;;;;;12.80;47.10;98371.71;461930;1236;139468;-62
2024/03/29 19:56:43;;;;;;;11.60;8.40;;;;;;;12.77;47.29;98372.56;462112;1235;138247;-61
2024/03/29 20:06:47;;;;;;;9.30;8.10;;;;;;;12.68;47.59;98379.37;462134;1235;138509;-61
2024/03/29 20:16:52;;;;;;;11.70;8.00;;;;;;;12.56;47.95;98379.13;462109;1235;138914;-62
2024/03/29 20:26:56;;;;;;;11.90;8.30;;;;;;;12.39;48.23;98382.09;462206;1235;138547;-62
2024/03/29 20:37:00;;;;;;;12.30;8.40;;;;;;;12.10;48.85;98392.05;452632;1235;138398;-66
2024/03/29 20:47:03;;;;;;;13.80;9.00;;;;;;;11.81;49.52;98395.66;447808;1235;139195;-66
2024/03/29 20:57:08;;;;;;;15.90;9.40;;;;;;;11.56;50.31;98383.60;448545;1239;139479;-64
2024/03/29 21:07:11;;;;;;;13.50;9.30;;;;;;;11.37;51.09;98388.44;449369;1236;138550;-66
2024/03/29 21:17:16;;;;;;;13.50;8.80;;;;;;;11.20;52.05;98386.90;448706;1239;139390;-72
2024/03/29 21:27:20;;;;;;;14.40;8.20;;;;;;;11.08;52.99;98396.46;449652;1239;140141;-71
2024/03/29 21:37:23;;;;;;;10.80;7.60;;;;;;;10.99;53.78;98404.73;449882;1236;139405;-66
2024/03/29 21:47:27;;;;;;;13.50;8.20;;;;;;;10.93;54.70;98397.90;449880;1235;138609;-67
2024/03/29 21:57:30;;;;;;;12.50;8.30;;;;;;;10.85;55.54;98401.17;448518;1237;138873;-70
2024/03/29 22:07:33;;;;;;;13.60;8.30;;;;;;;10.76;56.55;98395.63;448295;1239;139415;-71
2024/03/29 22:17:36;;;;;;;14.60;7.90;;;;;;;10.66;57.51;98389.31;448833;1239;138357;-61
2024/03/29 22:27:40;;;;;;;11.70;7.00;;;;;;;10.57;58.55;98384.46;462030;1236;138984;-62
2024/03/29 22:37:43;;;;;;;12.10;7.00;;;;;;;10.49;59.42;98381.96;462302;1235;138256;-63
2024/03/29 22:47:46;;;;;;;10.00;6.60;;;;;;;10.42;60.34;98395.10;462162;1235;138753;-65
2024/03/29 22:57:50;;;;;;;7.40;5.40;;;;;;;10.41;60.97;98399.02;462161;1239;139255;-63
2024/03/29 23:07:53;;;;;;;11.70;5.30;;;;;;;10.50;61.75;98398.49;462335;1235;138057;-61
2024/03/29 23:17:56;;;;;;;9.30;5.50;;;;;;;10.56;62.19;98407.63;461978;1238;138605;-62
2024/03/29 23:28:03;;;;;;;10.40;5.40;;;;;;;10.58;62.72;98407.97;461834;1236;138658;-60
2024/03/29 23:38:08;;;;;;;6.00;3.80;;;;;;;10.62;63.43;98403.44;462095;1235;138693;-57
2024/03/29 23:48:11;;;;;;;8.20;5.70;;;;;;;10.64;64.17;98409.62;462034;1238;138755;-63
2024/03/29 23:58:16;;;;;;;12.00;4.30;;;;;;;10.65;64.65;98418.27;462056;1235;138530;-61
